Historyczne dane pomiarowe

Dodano dane terminowe – wersja testowa.

Dane z okresu 1951-2019

Wersja bazy: 1.34 [2019-03-16, lista zmian], aktualizacja planowana na 2019-04-15

Dane meteo z obszaru Polski uzyskane na podstawie danych udostępnionych przez Instytut Meteorologii i Gospodarki Wodnej – Państwowy Instytut Badawczy.

 

Wybierz Datę:    

       

TemperaturaWilgotnośćWiatrCiśnienieOpadyŚniegCzas trwania zjawisk
 Stacja t tx tn tng RH VA  wxwx mslp ppp RRR   cm mm wxwxwxwxwxwxwx
1987-08-14 12.9- 4.6- 78.0- 6.0 1.0---- 0.7------------
1987-08-13 13.3- 4.8- 75.5- 4.0 0.7---- 0.0------------
1987-08-12 12.1- 5.3- 78.0- 7.0 0.7---- 0.2------------
1987-08-11 13.9- 11.1- 77.0- 7.0 1.0---- 3.6------------
1987-08-10 15.5- 13.0- 84.3- 7.3 1.0---- 2.7------------
1987-08-09 15.8- 6.7- 69.0- 4.0 0.3---- 0.0------------
1987-08-08 14.2- 7.5- 67.0- 1.3 1.0---- 0.0------------
1987-08-07 11.0- 3.9- 79.8- 4.3 0.3---- 0.0------------
1987-08-06 10.5- 9.2- 83.5- 8.0 1.3---- 6.2------------
1987-08-05 10.5- 8.2- 90.0- 6.0 0.3---- 2.2------------
1987-08-04 13.0- 10.1- 80.8- 7.3 0.3---- 0.5------------
1987-08-03 15.8- 11.3- 71.0- 6.0 0.0---- 0.0------------
1987-08-02 15.5- 12.1- 73.3- 6.3 0.7---- 6.8------------
1987-08-01 15.2- 7.2- 79.5- 4.7 1.3---- 0.8------------
1987-07-31 15.8- 12.0- 85.8- 8.0 1.0---- 4.4------------
1987-07-30 18.8- 11.8- 60.5- 2.7 0.7---- 0.0------------
1987-07-29 14.5- 8.4- 63.3- 6.7 0.7---- 0.0------------
1987-07-28 13.0- 11.4- 80.3- 8.0 0.7---- 3.6------------
1987-07-27 12.6- 8.1- 62.3- 6.7 1.0---- 0.3------------
1987-07-26 13.5- 10.6- 84.8- 8.0 1.0---- 15.2------------
1987-07-25 19.0- 12.4- 76.0- 5.0 0.7---- 0.0------------
1987-07-24 20.7- 15.9- 77.8- 3.0 0.7---- 5.4------------
1987-07-23 20.8- 11.6- 67.5- 3.0 0.7---- 4.4------------
1987-07-22 19.9- 14.7- 70.0- 4.7 0.7---- 0.0------------
1987-07-21 21.2- 12.8- 63.3- 3.7 1.3---- 0.0------------
1987-07-20 21.0- 16.9- 70.8- 4.3 1.7---- 0.0------------
1987-07-19 23.6- 15.2- 67.8- 5.7 1.7---- 0.0------------
1987-07-18 24.1- 15.2- 63.3- 1.7 0.7---- 0.0------------
1987-07-17 21.7- 14.2- 65.3- 5.0 0.0---- 0.0------------
1987-07-16 19.5- 11.0- 75.0- 5.3 0.7---- 2.0------------
1987-07-15 17.0- 7.2- 65.3- 0.7 1.3---- 0.0------------
1987-07-14 17.4- 11.1- 60.0- 1.7 0.7---- 0.0------------
1987-07-13 19.5- 14.9- 70.8- 5.0 1.0---- 0.0------------
1987-07-12 21.6- 11.1- 58.5- 1.7 1.7---- 7.3------------
1987-07-11 16.6- 7.2- 65.0- 1.3 0.3---- 0.0------------
1987-07-10 14.8- 8.9- 67.0- 4.7 1.3---- 0.0------------
1987-07-09 16.9- 13.7- 86.0- 7.0 0.7---- 6.2------------
1987-07-08 21.2- 10.6- 56.5- 0.0 0.7---- 0.0------------
1987-07-07 18.7- 6.3- 57.0- 0.0 0.7---- 0.0------------
1987-07-06 16.9- 8.3- 62.3- 0.0 0.3---- 0.0------------
1987-07-05 14.8- 10.6- 84.8- 7.3 0.7---- 3.0------------
1987-07-04 19.1- 13.1- 69.3- 4.3 0.7---- 1.6------------
1987-07-03 18.9- 14.7- 74.8- 6.3 0.0---- 0.0------------
1987-07-02 19.6- 11.1- 82.3- 4.7 0.7---- 0.0------------
1987-07-01 23.5- 11.1- 68.5- 1.0 1.0---- 0.0------------
1987-06-30 23.7- 12.8- 65.8- 1.3 0.0---- 0.0------------
1987-06-29 20.5- 11.3- 73.3- 1.3 0.0---- 0.0------------
1987-06-28 19.6- 14.7- 67.0- 0.3 1.3---- 0.0------------
1987-06-27 18.1- 12.8- 79.5- 5.0 1.0---- 0.2------------
1987-06-26 16.0- 5.8- 66.3- 2.3 1.0---- 1.4------------
1987-06-25 14.6- 12.1- 77.8- 7.3 1.3---- 0.0------------
1987-06-24 15.6- 9.6- 74.5- 7.0 0.7---- 2.9------------
1987-06-23 15.7- 12.2- 79.3- 8.0 0.0---- 0.0------------
1987-06-22 14.4- 10.0- 84.5- 8.0 0.3---- 16.5------------
1987-06-21 14.9- 7.5- 74.0- 3.3 0.7---- 2.5------------
1987-06-20 14.6- 5.3- 62.5- 3.3 1.0---- 0.0------------
1987-06-19 12.1- 5.8- 65.0- 5.0 1.0---- 0.0------------
1987-06-18 9.6- 5.0- 79.0- 6.7 1.3---- 0.8------------
1987-06-17 9.8- 7.3- 82.3- 8.0 0.7---- 0.3------------
1987-06-16 14.5- 10.2- 82.0- 7.7 1.3---- 7.0------------
519.2 ms

 

Źródłem pochodzenia danych jest Instytut Meteorologii i Gospodarki Wodnej – Państwowy Instytut Badawczy. Dane Instytutu Meteorologii i Gospodarki Wodnej – Państwowego Instytutu Badawczego zostały przetworzone.

Dane źródłowe można odnaleźć na stronie https://dane.imgw.pl